Time;durP1;ratioP1;P1;durP2;ratioP2;P2;SDS_P1;SDS_P2;PMS_P1;PMS_P2;Temp;Humidity;BMP_temperature;BMP_pressure;BME280_temperature;BME280_humidity;BME280_pressure;Samples;Min_cycle;Max_cycle;Signal;HPM_P1;HPM_P2
2022/08/25 00:00:22;;;;;;;7.55;5.20;;;20.90;99.90;;;;;;5118197;27;20047;-66
2022/08/25 00:02:49;;;;;;;8.00;4.72;;;21.00;99.90;;;;;;5117377;27;20050;-66
2022/08/25 00:05:17;;;;;;;10.85;5.28;;;21.00;99.90;;;;;;5136398;27;20133;-65
2022/08/25 00:07:44;;;;;;;7.85;5.03;;;21.00;99.90;;;;;;5134477;27;20489;-66
2022/08/25 00:10:11;;;;;;;7.90;5.18;;;21.00;99.90;;;;;;5156587;27;20436;-65
2022/08/25 00:12:38;;;;;;;12.15;5.10;;;21.00;99.90;;;;;;5138002;27;20111;-66
2022/08/25 00:15:08;;;;;;;8.98;5.22;;;21.00;99.90;;;;;;5155562;27;20055;-66
2022/08/25 00:17:35;;;;;;;6.70;5.00;;;21.10;99.90;;;;;;5138293;27;20053;-65
2022/08/25 00:20:01;;;;;;;12.05;4.93;;;21.10;99.90;;;;;;5138513;27;20107;-66
2022/08/25 00:22:30;;;;;;;11.48;5.35;;;21.10;99.90;;;;;;5155961;27;20043;-66
2022/08/25 00:24:57;;;;;;;7.90;4.68;;;21.10;99.90;;;;;;5138577;27;20063;-66
2022/08/25 00:27:24;;;;;;;8.27;4.93;;;21.20;99.90;;;;;;5136451;27;20490;-66
2022/08/25 00:29:51;;;;;;;7.40;4.20;;;21.20;99.90;;;;;;5135514;27;20069;-66
2022/08/25 00:32:18;;;;;;;7.10;4.40;;;21.20;99.90;;;;;;5132931;27;20447;-66
2022/08/25 00:34:46;;;;;;;12.85;4.20;;;21.20;99.90;;;;;;5137930;27;20053;-65
2022/08/25 00:37:15;;;;;;;7.10;4.50;;;21.20;99.90;;;;;;5137208;27;20096;-66
2022/08/25 00:39:43;;;;;;;8.50;4.35;;;21.10;99.90;;;;;;5138229;27;20062;-66
2022/08/25 00:42:10;;;;;;;9.73;4.40;;;21.10;99.90;;;;;;5137251;27;20577;-66
2022/08/25 00:44:37;;;;;;;8.52;4.10;;;21.20;99.90;;;;;;5137523;27;20107;-66
2022/08/25 00:47:05;;;;;;;8.48;4.05;;;21.20;99.90;;;;;;5137988;27;20509;-66
2022/08/25 00:49:36;;;;;;;11.60;4.68;;;21.20;99.90;;;;;;5136866;27;20043;-66
2022/08/25 00:52:07;;;;;;;4.32;3.72;;;21.20;99.90;;;;;;5136987;27;20111;-66
2022/08/25 00:54:37;;;;;;;8.43;4.10;;;21.20;99.90;;;;;;5137548;27;20047;-66
2022/08/25 00:57:08;;;;;;;12.52;4.15;;;21.20;99.90;;;;;;5155836;27;20103;-66
2022/08/25 00:59:35;;;;;;;11.05;4.22;;;21.20;99.90;;;;;;5155600;27;20121;-65
2022/08/25 01:02:03;;;;;;;7.03;4.10;;;21.20;99.90;;;;;;5155937;27;20047;-66
2022/08/25 01:04:30;;;;;;;6.70;4.07;;;21.20;99.90;;;;;;5136157;27;20047;-66
2022/08/25 01:06:59;;;;;;;8.75;4.05;;;21.20;99.90;;;;;;5135151;27;20047;-66
2022/08/25 01:09:26;;;;;;;7.65;3.58;;;21.20;99.90;;;;;;5116947;27;20501;-65
2022/08/25 01:11:53;;;;;;;5.88;3.88;;;21.20;99.90;;;;;;5134167;27;20055;-65
2022/08/25 01:14:23;;;;;;;6.68;4.10;;;21.20;99.90;;;;;;5135720;27;20496;-65
2022/08/25 01:16:50;;;;;;;13.73;4.07;;;21.20;99.90;;;;;;5116269;27;20533;-66
2022/08/25 01:19:17;;;;;;;6.50;3.88;;;21.20;99.90;;;;;;5116319;27;20047;-66
2022/08/25 01:21:47;;;;;;;6.95;4.00;;;21.10;99.90;;;;;;5116627;27;20053;-66
2022/08/25 01:24:22;;;;;;;7.05;4.28;;;21.10;99.90;;;;;;5134697;27;20043;-66
2022/08/25 01:26:49;;;;;;;6.28;3.80;;;21.10;99.90;;;;;;5134447;27;20096;-66
2022/08/25 01:29:24;;;;;;;7.82;3.85;;;21.10;99.90;;;;;;5116548;27;20099;-65
2022/08/25 01:31:56;;;;;;;6.85;3.85;;;21.00;99.90;;;;;;5116744;27;20083;-65
2022/08/25 01:34:23;;;;;;;6.05;3.55;;;21.00;99.90;;;;;;5136166;27;20504;-66
2022/08/25 01:36:52;;;;;;;8.10;3.60;;;21.00;99.90;;;;;;5136904;27;20055;-66
2022/08/25 01:39:19;;;;;;;12.27;3.67;;;21.00;99.90;;;;;;5137047;27;20111;-66
2022/08/25 01:41:59;;;;;;;7.45;3.92;;;21.00;99.90;;;;;;5135954;27;20489;-66
2022/08/25 01:44:26;;;;;;;11.55;3.95;;;21.00;99.90;;;;;;5152611;27;20054;-66
2022/08/25 01:46:53;;;;;;;10.52;3.63;;;21.00;99.90;;;;;;5134973;27;20081;-67
2022/08/25 01:49:20;;;;;;;9.27;3.78;;;20.90;99.90;;;;;;5116435;27;20051;-66
2022/08/25 01:51:51;;;;;;;8.38;4.00;;;20.90;99.90;;;;;;5134540;27;20039;-66
2022/08/25 01:54:19;;;;;;;;;;;20.80;99.90;;;;;;5134548;27;20059;-67
2022/08/25 01:56:46;;;;;;;7.22;4.05;;;20.80;99.90;;;;;;5116227;28;20415;-67
2022/08/25 01:59:15;;;;;;;7.60;3.95;;;20.80;99.90;;;;;;5134388;27;20055;-66
2022/08/25 02:01:42;;;;;;;9.25;4.03;;;20.80;99.90;;;;;;5115497;27;20050;-66
2022/08/25 02:04:09;;;;;;;5.68;3.50;;;20.80;99.90;;;;;;5116209;27;20043;-66
2022/08/25 02:06:36;;;;;;;7.45;3.55;;;20.80;99.90;;;;;;5133414;27;20051;-66
2022/08/25 02:09:06;;;;;;;6.03;3.70;;;20.70;99.90;;;;;;5133872;27;20043;-67
2022/08/25 02:11:35;;;;;;;;;;;20.70;99.90;;;;;;5134546;27;20104;-65
2022/08/25 02:14:02;;;;;;;4.72;3.72;;;20.70;99.90;;;;;;5115386;27;20379;-66
2022/08/25 02:16:32;;;;;;;5.60;3.38;;;20.60;99.90;;;;;;5134820;27;20043;-65
2022/08/25 02:18:59;;;;;;;5.50;3.40;;;20.60;99.90;;;;;;5154791;27;20489;-66
2022/08/25 02:21:27;;;;;;;7.65;3.80;;;20.60;99.90;;;;;;5136321;27;20137;-66
2022/08/25 02:23:55;;;;;;;9.43;3.70;;;20.50;99.90;;;;;;5154221;27;20050;-67
2022/08/25 02:26:23;;;;;;;7.10;3.67;;;20.50;99.90;;;;;;5154509;27;20107;-66
2022/08/25 02:28:53;;;;;;;4.40;3.00;;;20.50;99.90;;;;;;5135519;27;20056;-67
2022/08/25 02:31:22;;;;;;;12.63;3.40;;;20.50;99.90;;;;;;5134154;28;20455;-66
2022/08/25 02:33:49;;;;;;;7.45;3.55;;;20.50;99.90;;;;;;5115440;28;20058;-66
2022/08/25 02:36:16;;;;;;;6.15;3.70;;;20.40;99.90;;;;;;5133518;28;20051;-66
2022/08/25 02:38:44;;;;;;;8.77;4.13;;;20.40;99.90;;;;;;5133748;28;20055;-66
2022/08/25 02:41:14;;;;;;;8.73;3.65;;;20.40;99.90;;;;;;5133612;28;20487;-66
2022/08/25 02:43:42;;;;;;;9.35;4.15;;;20.40;99.90;;;;;;5133098;27;20058;-66
2022/08/25 02:46:11;;;;;;;6.95;3.65;;;20.40;99.90;;;;;;5136227;27;20055;-66
2022/08/25 02:48:39;;;;;;;8.57;3.58;;;20.40;99.90;;;;;;5135587;27;20057;-66
2022/08/25 02:51:08;;;;;;;9.13;3.78;;;20.40;99.90;;;;;;5135504;27;20099;-66
2022/08/25 02:53:37;;;;;;;12.80;4.30;;;20.40;99.90;;;;;;5154334;27;20085;-66
2022/08/25 02:56:04;;;;;;;8.32;4.38;;;20.30;99.90;;;;;;5154166;27;20122;-66
2022/08/25 02:58:31;;;;;;;8.38;4.10;;;20.30;99.90;;;;;;5120089;28;20130;-65
2022/08/25 03:00:58;;;;;;;9.45;4.00;;;20.20;99.90;;;;;;5115303;28;20525;-66
2022/08/25 03:03:26;;;;;;;7.57;3.67;;;20.20;99.90;;;;;;5133361;28;20043;-66
2022/08/25 03:05:56;;;;;;;9.88;4.50;;;20.20;99.90;;;;;;5114680;28;20100;-65
2022/08/25 03:08:23;;;;;;;5.30;3.50;;;20.20;99.90;;;;;;5133522;28;20047;-66
2022/08/25 03:10:50;;;;;;;8.02;4.05;;;20.20;99.90;;;;;;5134634;27;20051;-66
2022/08/25 03:13:17;;;;;;;7.70;3.72;;;20.20;99.90;;;;;;5111200;28;20063;-66
2022/08/25 03:15:45;;;;;;;7.75;3.92;;;20.20;99.90;;;;;;5112775;28;20051;-67
2022/08/25 03:18:11;;;;;;;6.68;3.95;;;20.20;99.90;;;;;;5116029;28;20052;-65
2022/08/25 03:20:40;;;;;;;5.88;3.80;;;20.10;99.90;;;;;;5115874;28;20052;-65
2022/08/25 03:23:07;;;;;;;10.73;4.03;;;20.10;99.90;;;;;;5115433;28;20096;-65
2022/08/25 03:28:19;;;;;;;6.85;3.50;;;20.10;99.90;;;;;;5137378;27;20057;-65
2022/08/25 03:30:46;;;;;;;9.23;3.55;;;20.00;99.90;;;;;;5136983;27;20063;-66
2022/08/25 03:33:13;;;;;;;4.82;3.42;;;20.00;99.90;;;;;;5136524;27;20055;-66
2022/08/25 03:35:41;;;;;;;7.18;4.03;;;20.00;99.90;;;;;;5137207;27;20047;-66
2022/08/25 03:38:08;;;;;;;7.47;3.88;;;20.00;99.90;;;;;;5135337;27;20051;-65
2022/08/25 03:40:35;;;;;;;12.75;3.88;;;20.00;99.90;;;;;;5136322;27;20096;-65
2022/08/25 03:43:02;;;;;;;6.57;3.70;;;20.00;99.90;;;;;;5136806;27;20053;-66
2022/08/25 03:45:29;;;;;;;8.15;3.60;;;20.00;99.90;;;;;;5136779;27;20452;-65
2022/08/25 03:47:56;;;;;;;10.68;3.70;;;19.90;99.90;;;;;;5136118;27;20512;-64
2022/08/25 03:50:24;;;;;;;15.20;3.80;;;19.90;99.90;;;;;;5135670;27;20104;-65
2022/08/25 03:52:54;;;;;;;8.45;4.55;;;19.90;99.90;;;;;;5116995;27;20521;-65
2022/08/25 03:55:22;;;;;;;9.25;3.35;;;19.90;99.90;;;;;;5115600;28;20483;-66
2022/08/25 03:57:49;;;;;;;10.32;3.53;;;19.80;99.90;;;;;;5115010;28;20130;-66
2022/08/25 04:00:16;;;;;;;9.80;3.75;;;19.80;99.90;;;;;;5115567;28;20048;-66
2022/08/25 04:02:44;;;;;;;5.90;3.72;;;19.80;99.90;;;;;;5116643;27;20116;-65
2022/08/25 04:05:11;;;;;;;7.70;3.90;;;19.80;99.90;;;;;;5136376;27;20043;-66
2022/08/25 04:07:38;;;;;;;7.03;3.60;;;19.80;99.90;;;;;;5135841;27;20047;-63
2022/08/25 04:10:09;;;;;;;9.50;3.70;;;19.70;99.90;;;;;;5135488;27;20055;-64
2022/08/25 04:12:37;;;;;;;7.03;3.38;;;19.80;99.90;;;;;;5148964;27;20138;-64
2022/08/25 04:15:04;;;;;;;7.85;3.90;;;19.70;99.90;;;;;;5156067;27;20055;-65
2022/08/25 04:17:32;;;;;;;8.65;3.42;;;19.70;99.90;;;;;;5155290;27;20047;-65
2022/08/25 04:19:59;;;;;;;6.57;3.75;;;19.70;99.90;;;;;;5155109;27;20439;-65
2022/08/25 04:22:26;;;;;;;6.65;3.80;;;19.60;99.90;;;;;;5155593;27;20051;-64
2022/08/25 04:24:53;;;;;;;5.68;3.58;;;19.60;99.90;;;;;;5156759;27;20454;-64
2022/08/25 04:27:21;;;;;;;5.15;3.65;;;19.60;99.90;;;;;;5138070;27;20444;-65
2022/08/25 04:29:48;;;;;;;5.88;3.42;;;19.60;99.90;;;;;;5136977;27;20047;-67
2022/08/25 04:32:15;;;;;;;8.07;3.85;;;19.60;99.90;;;;;;5152845;27;20055;-66
2022/08/25 04:34:42;;;;;;;8.82;4.05;;;19.60;99.90;;;;;;5132984;27;20051;-66
2022/08/25 04:37:09;;;;;;;6.28;4.20;;;19.70;99.90;;;;;;5135473;27;20071;-66
2022/08/25 04:39:36;;;;;;;7.63;4.13;;;19.80;99.90;;;;;;5136497;27;20482;-66
2022/08/25 04:42:03;;;;;;;8.45;4.47;;;19.80;99.90;;;;;;5136143;27;20526;-66
2022/08/25 04:44:32;;;;;;;12.45;4.70;;;20.00;99.90;;;;;;5150742;27;20102;-66
2022/08/25 04:46:59;;;;;;;9.07;4.43;;;19.90;99.90;;;;;;5147785;27;20444;-66
2022/08/25 04:49:27;;;;;;;12.07;6.00;;;19.90;99.90;;;;;;5122064;27;20080;-66
2022/08/25 04:51:55;;;;;;;14.20;6.72;;;20.10;99.90;;;;;;5145256;27;20039;-66
2022/08/25 04:54:22;;;;;;;14.68;6.78;;;20.10;99.90;;;;;;5129392;27;20544;-66
2022/08/25 04:56:50;;;;;;;13.82;7.00;;;20.10;99.90;;;;;;5144334;27;20054;-65
2022/08/25 04:59:18;;;;;;;13.90;7.60;;;20.00;99.90;;;;;;5126901;27;20396;-66
2022/08/25 05:01:47;;;;;;;21.02;8.25;;;20.00;99.90;;;;;;5145316;27;20042;-66
2022/08/25 05:04:16;;;;;;;19.50;7.57;;;20.10;99.90;;;;;;5140026;27;20054;-66
2022/08/25 05:06:45;;;;;;;12.60;6.95;;;20.30;99.90;;;;;;5125219;27;20042;-66
2022/08/25 05:09:12;;;;;;;15.65;7.03;;;20.40;99.90;;;;;;5143926;27;20537;-67
2022/08/25 05:11:39;;;;;;;12.50;6.95;;;20.40;99.90;;;;;;5125387;27;20055;-66
2022/08/25 05:14:10;;;;;;;11.95;5.97;;;20.30;99.90;;;;;;5146615;27;20500;-66
2022/08/25 05:16:37;;;;;;;17.23;7.90;;;20.30;99.90;;;;;;5146298;27;20049;-66
2022/08/25 05:19:06;;;;;;;14.63;6.82;;;20.30;99.90;;;;;;5149424;27;20545;-66
2022/08/25 05:21:33;;;;;;;11.55;6.60;;;20.30;99.90;;;;;;5126996;27;20054;-67
2022/08/25 05:24:01;;;;;;;10.65;5.97;;;20.30;99.90;;;;;;5123772;27;20130;-67
2022/08/25 05:26:30;;;;;;;13.60;6.80;;;20.30;99.90;;;;;;5125206;27;20047;-67
2022/08/25 05:28:59;;;;;;;13.23;7.03;;;20.30;99.90;;;;;;5132941;27;20047;-68
2022/08/25 05:31:28;;;;;;;14.18;7.13;;;20.30;99.90;;;;;;5142245;27;20047;-67
2022/08/25 05:33:55;;;;;;;11.00;6.03;;;20.40;99.90;;;;;;5143968;27;20042;-67
2022/08/25 05:36:26;;;;;;;10.02;6.03;;;20.30;99.90;;;;;;5127666;27;20088;-69
2022/08/25 05:38:53;;;;;;;14.77;5.78;;;20.40;99.90;;;;;;5126591;27;20130;-66
2022/08/25 05:41:25;;;;;;;11.55;5.80;;;20.40;99.90;;;;;;5129422;27;20079;-66
2022/08/25 05:43:52;;;;;;;9.70;6.53;;;20.40;99.90;;;;;;5124985;27;20047;-66
2022/08/25 05:46:20;;;;;;;8.63;5.15;;;20.50;99.90;;;;;;5146002;27;20054;-66
2022/08/25 05:48:48;;;;;;;10.88;5.75;;;20.50;99.90;;;;;;5144658;27;20053;-67
2022/08/25 05:51:15;;;;;;;9.55;5.15;;;20.50;99.90;;;;;;5145206;27;20051;-66
2022/08/25 05:53:46;;;;;;;10.30;5.97;;;20.60;99.90;;;;;;5121065;27;20063;-67
2022/08/25 05:56:14;;;;;;;8.57;5.40;;;20.70;99.90;;;;;;5109868;27;20099;-67
2022/08/25 05:58:42;;;;;;;12.25;5.88;;;20.70;99.90;;;;;;5127233;27;20103;-67
2022/08/25 06:03:54;;;;;;;7.13;4.25;;;21.00;99.90;;;;;;5116879;27;20043;-67
2022/08/25 06:06:23;;;;;;;7.88;5.10;;;21.20;99.90;;;;;;5131176;27;20054;-67
2022/08/25 06:08:51;;;;;;;10.25;4.50;;;21.30;99.90;;;;;;5148298;27;20072;-67
2022/08/25 06:11:18;;;;;;;7.38;4.97;;;21.40;99.90;;;;;;5121549;27;20054;-67
2022/08/25 06:13:45;;;;;;;9.52;4.93;;;21.60;99.90;;;;;;5127432;27;20042;-66
2022/08/25 06:16:12;;;;;;;10.98;5.88;;;21.70;99.90;;;;;;5146411;27;20043;-67
2022/08/25 06:18:39;;;;;;;8.07;4.68;;;21.90;99.90;;;;;;5147017;27;20039;-67
2022/08/25 06:21:11;;;;;;;10.30;5.30;;;22.30;99.90;;;;;;5145928;27;20550;-67
2022/08/25 06:23:39;;;;;;;10.50;5.15;;;22.70;99.90;;;;;;5127182;27;20047;-66
2022/08/25 06:26:10;;;;;;;9.05;5.00;;;23.10;99.90;;;;;;5126763;27;20043;-67
2022/08/25 06:28:37;;;;;;;8.73;5.03;;;23.50;99.00;;;;;;5123749;27;20161;-68
2022/08/25 06:31:04;;;;;;;10.48;6.43;;;24.00;98.00;;;;;;5138620;27;20106;-66
2022/08/25 06:33:31;;;;;;;11.32;4.82;;;24.50;97.20;;;;;;5123047;27;20181;-66
2022/08/25 06:35:58;;;;;;;9.00;5.13;;;24.90;96.30;;;;;;5118870;27;20047;-67
2022/08/25 06:38:26;;;;;;;7.63;5.07;;;25.40;95.70;;;;;;5143172;27;20045;-67
2022/08/25 06:40:53;;;;;;;7.68;4.80;;;25.80;95.00;;;;;;5118104;27;20494;-68
2022/08/25 06:43:22;;;;;;;8.60;4.85;;;26.20;94.50;;;;;;5142326;27;20043;-66
2022/08/25 06:45:49;;;;;;;12.68;5.13;;;26.50;93.40;;;;;;5122106;27;20042;-66
2022/08/25 06:48:16;;;;;;;6.57;4.72;;;26.90;93.00;;;;;;5124196;27;20054;-67
2022/08/25 06:50:44;;;;;;;9.65;4.97;;;27.30;92.60;;;;;;5139212;27;20418;-66
2022/08/25 06:53:11;;;;;;;8.95;4.78;;;27.50;92.00;;;;;;5139979;27;20096;-67
2022/08/25 06:55:38;;;;;;;12.18;5.28;;;27.80;91.50;;;;;;5127500;27;20115;-66
2022/08/25 06:58:05;;;;;;;8.43;4.65;;;28.00;90.90;;;;;;5127734;27;20371;-66
2022/08/25 07:00:33;;;;;;;8.98;4.50;;;28.40;90.50;;;;;;5148900;27;20443;-67
2022/08/25 07:03:01;;;;;;;8.13;4.75;;;28.70;89.80;;;;;;5146447;27;20049;-67
2022/08/25 07:05:28;;;;;;;10.38;5.10;;;29.00;89.20;;;;;;5139031;27;20058;-66
2022/08/25 07:07:55;;;;;;;9.20;4.65;;;29.30;88.50;;;;;;5138939;27;20493;-67
2022/08/25 07:10:22;;;;;;;9.48;4.85;;;29.50;87.40;;;;;;5156917;27;20039;-67
2022/08/25 07:12:49;;;;;;;8.45;4.28;;;29.70;86.50;;;;;;5157540;27;20093;-67
2022/08/25 07:15:16;;;;;;;7.75;3.92;;;30.20;86.10;;;;;;5124923;27;20047;-67
2022/08/25 07:17:44;;;;;;;7.38;4.30;;;30.40;85.10;;;;;;5134944;27;20047;-67
2022/08/25 07:20:12;;;;;;;8.57;4.22;;;30.70;84.30;;;;;;5109296;27;20043;-66
2022/08/25 07:22:39;;;;;;;8.52;4.25;;;31.00;83.90;;;;;;5135750;27;20089;-66
2022/08/25 07:25:07;;;;;;;8.32;4.55;;;31.20;82.90;;;;;;5117900;27;20122;-65
2022/08/25 07:27:34;;;;;;;11.13;4.93;;;31.60;82.20;;;;;;5137295;27;20099;-67
2022/08/25 07:30:01;;;;;;;7.30;4.03;;;31.70;81.30;;;;;;5119439;27;20846;-66
2022/08/25 07:32:28;;;;;;;10.40;4.85;;;32.00;80.00;;;;;;5125817;27;20494;-66
2022/08/25 07:37:41;;;;;;;6.68;3.88;;;32.00;79.40;;;;;;5136512;27;20406;-67
2022/08/25 07:40:10;;;;;;;6.97;4.32;;;32.20;78.90;;;;;;5126832;27;20053;-68
2022/08/25 07:42:37;;;;;;;10.13;4.45;;;32.50;78.50;;;;;;5137081;27;20047;-68
2022/08/25 07:45:09;;;;;;;10.82;4.30;;;32.50;77.90;;;;;;5139457;27;20055;-67
2022/08/25 07:47:36;;;;;;;7.80;4.38;;;32.70;75.90;;;;;;5134836;27;20100;-66
2022/08/25 07:50:05;;;;;;;10.23;3.50;;;32.70;77.00;;;;;;5135253;27;20043;-67
2022/08/25 07:52:32;;;;;;;9.02;4.10;;;33.00;76.50;;;;;;5123438;27;20050;-67
2022/08/25 07:54:59;;;;;;;7.88;4.10;;;33.10;76.10;;;;;;5131336;27;20043;-67
2022/08/25 07:57:27;;;;;;;10.40;3.95;;;33.70;75.70;;;;;;5149965;27;20486;-67
2022/08/25 07:59:54;;;;;;;6.72;3.65;;;34.00;74.90;;;;;;5124457;27;20038;-67
2022/08/25 08:02:21;;;;;;;14.73;4.38;;;34.30;74.00;;;;;;5144103;27;20125;-67
2022/08/25 08:04:49;;;;;;;7.68;4.18;;;34.40;73.00;;;;;;5143695;27;20103;-67
2022/08/25 08:07:18;;;;;;;5.55;3.63;;;34.40;72.50;;;;;;5124696;27;20047;-67
2022/08/25 08:09:45;;;;;;;;;;;34.40;72.00;;;;;;5144937;27;20444;-67
2022/08/25 08:12:12;;;;;;;7.03;3.22;;;34.10;69.90;;;;;;5144661;27;19919;-67
2022/08/25 08:14:39;;;;;;;8.13;3.35;;;34.20;72.10;;;;;;5117483;27;20410;-68
2022/08/25 08:17:07;;;;;;;7.30;3.13;;;34.40;71.80;;;;;;5142087;27;20078;-68
2022/08/25 08:19:35;;;;;;;6.00;3.72;;;34.70;71.30;;;;;;5124919;27;20047;-68
2022/08/25 08:22:02;;;;;;;7.78;3.88;;;34.80;70.90;;;;;;5146702;27;20051;-67
2022/08/25 08:24:33;;;;;;;8.88;3.63;;;35.10;70.30;;;;;;5125152;27;20046;-68
2022/08/25 08:27:01;;;;;;;5.30;3.00;;;35.40;69.90;;;;;;5114217;27;20117;-67
2022/08/25 08:29:28;;;;;;;5.45;2.90;;;35.30;69.70;;;;;;5137208;27;20375;-67
2022/08/25 08:31:55;;;;;;;12.95;3.47;;;35.50;69.10;;;;;;5155857;27;20053;-66
2022/08/25 08:34:23;;;;;;;9.80;3.38;;;35.50;69.30;;;;;;5138065;27;20053;-66
2022/08/25 08:36:49;;;;;;;7.20;3.42;;;35.70;68.50;;;;;;5133635;27;20130;-67
2022/08/25 08:39:16;;;;;;;6.57;3.25;;;35.90;68.30;;;;;;5119951;27;20448;-67
2022/08/25 08:42:20;;;;;;;6.80;3.15;;;36.10;67.40;;;;;;5149261;27;20054;-67
2022/08/25 08:45:03;;;;;;;8.15;3.00;;;36.30;66.60;;;;;;5156187;27;20383;-67
2022/08/25 08:47:40;;;;;;;8.23;3.10;;;36.30;67.60;;;;;;5130716;27;20517;-67
2022/08/25 08:50:20;;;;;;;6.32;2.85;;;36.00;66.70;;;;;;5145634;27;20465;-67
2022/08/25 08:52:52;;;;;;;5.22;3.17;;;36.10;66.40;;;;;;5125654;27;20099;-67
2022/08/25 08:55:27;;;;;;;6.95;3.00;;;36.50;66.70;;;;;;5133635;27;20100;-67
2022/08/25 08:57:57;;;;;;;7.38;3.22;;;36.70;65.70;;;;;;5133451;27;20066;-67
2022/08/25 09:00:25;;;;;;;7.35;2.90;;;36.60;65.60;;;;;;5134596;27;20124;-66
2022/08/25 09:02:57;;;;;;;5.45;2.67;;;36.70;65.60;;;;;;5133713;27;20072;-67
2022/08/25 09:05:28;;;;;;;9.05;3.00;;;37.00;65.60;;;;;;5149213;27;20853;-67
2022/08/25 09:07:57;;;;;;;4.18;2.42;;;36.70;65.20;;;;;;5137289;27;20042;-67
2022/08/25 09:10:30;;;;;;;6.03;2.90;;;37.10;65.00;;;;;;5143519;27;20490;-68
2022/08/25 09:13:06;;;;;;;5.88;3.05;;;37.40;64.30;;;;;;5140526;27;20135;-66
2022/08/25 09:18:38;;;;;;;6.57;2.67;;;37.70;64.00;;;;;;5134331;27;20104;-68
2022/08/25 09:21:14;;;;;;;9.60;3.63;;;37.50;64.00;;;;;;5116116;27;20134;-67
2022/08/25 09:24:01;;;;;;;6.88;2.97;;;37.70;63.90;;;;;;5118491;27;20047;-68
2022/08/25 09:26:34;;;;;;;5.63;2.85;;;38.00;63.30;;;;;;5115534;27;20061;-68
2022/08/25 09:29:08;;;;;;;8.70;2.97;;;38.10;62.60;;;;;;5117265;27;20071;-67
2022/08/25 09:31:37;;;;;;;4.13;2.25;;;38.00;62.30;;;;;;5115088;27;20062;-68
2022/08/25 09:34:07;;;;;;;4.80;2.65;;;38.10;61.90;;;;;;5115719;27;20050;-67
2022/08/25 09:36:34;;;;;;;7.15;2.60;;;37.90;61.70;;;;;;5134448;27;20137;-68
2022/08/25 09:39:01;;;;;;;4.18;2.30;;;38.20;62.10;;;;;;5115527;27;20482;-67
2022/08/25 09:41:46;;;;;;;6.22;3.10;;;38.50;62.10;;;;;;5118154;27;20050;-67
2022/08/25 09:44:21;;;;;;;7.93;2.25;;;38.20;60.80;;;;;;5151548;27;20047;-68
2022/08/25 09:47:00;;;;;;;7.13;2.10;;;38.20;62.30;;;;;;5141346;27;20478;-68
2022/08/25 09:49:33;;;;;;;4.93;2.38;;;38.20;62.00;;;;;;5147389;27;20043;-67
2022/08/25 09:52:32;;;;;;;7.95;2.55;;;39.00;61.80;;;;;;5122840;27;20094;-68
2022/08/25 09:55:15;;;;;;;6.40;2.53;;;39.00;60.40;;;;;;5149372;27;20050;-68
2022/08/25 09:57:46;;;;;;;5.50;2.33;;;39.20;60.70;;;;;;5145409;27;20107;-67
2022/08/25 10:00:18;;;;;;;4.15;2.00;;;39.50;60.10;;;;;;5133284;27;20043;-67
2022/08/25 10:03:02;;;;;;;3.35;1.90;;;39.30;59.50;;;;;;5132555;27;20061;-67
2022/08/25 10:05:33;;;;;;;6.60;2.30;;;39.20;59.30;;;;;;5154558;27;20566;-67
2022/08/25 10:08:04;;;;;;;5.40;1.90;;;39.40;58.60;;;;;;5135227;27;20417;-67
2022/08/25 10:10:33;;;;;;;4.78;2.00;;;39.30;57.30;;;;;;5135704;27;20043;-67
2022/08/25 10:13:02;;;;;;;4.53;2.10;;;39.10;57.80;;;;;;5148729;27;20058;-68
2022/08/25 10:15:33;;;;;;;4.55;2.25;;;38.90;58.70;;;;;;5124989;27;20486;-67
2022/08/25 10:18:20;;;;;;;6.75;2.30;;;38.80;59.20;;;;;;5142028;27;20042;-69
2022/08/25 10:21:06;;;;;;;5.22;1.95;;;38.90;59.30;;;;;;5133208;27;20492;-67
2022/08/25 10:23:35;;;;;;;7.03;2.20;;;39.30;58.60;;;;;;5137432;27;20051;-69
2022/08/25 10:26:09;;;;;;;8.90;2.28;;;39.20;58.70;;;;;;5114683;27;20082;-67
2022/08/25 10:28:45;;;;;;;5.43;2.47;;;39.30;58.50;;;;;;5137241;27;20047;-67
2022/08/25 10:31:21;;;;;;;3.85;2.10;;;39.50;58.20;;;;;;5127862;27;20043;-68
2022/08/25 10:34:02;;;;;;;4.25;2.33;;;39.70;57.90;;;;;;5139720;27;20447;-68
2022/08/25 10:36:35;;;;;;;7.07;2.22;;;39.50;56.70;;;;;;5114986;28;20051;-68
2022/08/25 10:39:03;;;;;;;5.10;1.65;;;39.40;56.10;;;;;;5136524;27;20092;-68
2022/08/25 10:41:44;;;;;;;3.72;1.77;;;39.40;56.10;;;;;;5149890;27;20082;-67
2022/08/25 10:47:28;;;;;;;8.65;1.90;;;39.30;56.90;;;;;;5151521;27;20119;-68
2022/08/25 10:49:59;;;;;;;5.68;1.92;;;39.50;56.50;;;;;;5142757;27;20047;-67
2022/08/25 10:52:32;;;;;;;5.55;2.05;;;39.60;55.70;;;;;;5150207;27;20059;-68
2022/08/25 10:55:09;;;;;;;8.13;1.85;;;39.40;56.30;;;;;;5134379;27;20099;-68
2022/08/25 10:57:41;;;;;;;6.22;2.00;;;39.50;55.90;;;;;;5153801;27;20051;-67
2022/08/25 11:00:12;;;;;;;4.78;1.90;;;39.30;55.80;;;;;;5133716;27;20096;-68
2022/08/25 11:03:18;;;;;;;4.65;2.10;;;39.10;56.30;;;;;;5127996;27;20091;-68
2022/08/25 11:05:49;;;;;;;3.88;1.83;;;39.10;55.90;;;;;;5151733;27;20046;-68
2022/08/25 11:08:22;;;;;;;5.57;1.80;;;39.40;56.20;;;;;;5120558;28;20100;-68
2022/08/25 11:10:54;;;;;;;4.13;1.80;;;39.40;55.60;;;;;;5131006;27;20057;-68
2022/08/25 11:13:28;;;;;;;3.47;1.85;;;39.30;54.80;;;;;;5152002;27;20054;-67
2022/08/25 11:16:00;;;;;;;5.47;2.53;;;39.40;54.60;;;;;;5151184;27;20103;-67
2022/08/25 11:18:31;;;;;;;4.45;1.77;;;39.60;54.80;;;;;;5152074;27;20108;-68
2022/08/25 11:21:06;;;;;;;3.58;1.80;;;39.70;54.70;;;;;;5134062;27;20387;-67
2022/08/25 11:23:38;;;;;;;8.50;2.15;;;39.40;54.50;;;;;;5151869;27;20410;-67
2022/08/25 11:26:09;;;;;;;4.85;2.15;;;39.50;55.70;;;;;;5152420;27;20493;-68
2022/08/25 11:28:48;;;;;;;6.25;1.90;;;39.80;55.70;;;;;;5145275;27;20054;-68
2022/08/25 11:31:17;;;;;;;6.97;2.00;;;40.00;56.00;;;;;;5143707;27;20046;-68
2022/08/25 11:33:45;;;;;;;7.20;2.10;;;40.50;56.10;;;;;;5151319;27;20067;-68
2022/08/25 11:36:19;;;;;;;7.70;2.10;;;40.30;55.30;;;;;;5150179;27;20046;-68
2022/08/25 11:38:57;;;;;;;5.55;2.40;;;40.10;55.20;;;;;;5148401;27;20051;-68
2022/08/25 11:41:32;;;;;;;4.90;2.27;;;39.80;55.00;;;;;;5153903;27;20494;-68
2022/08/25 11:44:22;;;;;;;5.00;2.30;;;39.80;55.10;;;;;;5135494;27;20102;-68
2022/08/25 11:47:03;;;;;;;3.35;1.80;;;39.80;53.90;;;;;;5136252;27;20470;-69
2022/08/25 11:49:52;;;;;;;8.77;2.08;;;39.60;54.00;;;;;;5145437;27;20055;-68
2022/08/25 11:52:52;;;;;;;4.50;1.60;;;39.40;53.70;;;;;;5155508;27;20050;-68
2022/08/25 11:55:25;;;;;;;6.45;1.73;;;39.40;54.10;;;;;;5128122;27;20054;-68
2022/08/25 11:58:22;;;;;;;3.35;1.90;;;39.50;54.20;;;;;;5154985;27;20051;-68
2022/08/25 12:00:50;;;;;;;4.82;3.00;;;39.60;54.00;;;;;;5154034;27;20043;-67
2022/08/25 12:03:46;;;;;;;5.00;2.20;;;39.80;54.30;;;;;;5133261;27;20058;-68
2022/08/25 12:06:21;;;;;;;6.25;2.58;;;40.00;54.50;;;;;;5136521;27;20055;-68
2022/08/25 12:08:51;;;;;;;3.13;1.92;;;40.00;54.50;;;;;;5156301;27;20047;-68
2022/08/25 12:11:48;;;;;;;5.28;1.80;;;40.10;54.60;;;;;;5137100;27;20339;-68
2022/08/25 12:14:33;;;;;;;5.03;1.88;;;40.30;54.40;;;;;;5154492;27;20050;-68
2022/08/25 12:17:08;;;;;;;4.85;2.38;;;39.80;54.20;;;;;;5135777;27;20057;-68
2022/08/25 12:19:50;;;;;;;5.20;2.03;;;40.40;54.20;;;;;;5152577;27;20057;-68
2022/08/25 12:22:53;;;;;;;4.70;2.10;;;40.60;53.60;;;;;;5131242;27;20621;-68
2022/08/25 12:25:53;;;;;;;4.70;1.92;;;40.30;53.20;;;;;;5136708;27;20097;-68
2022/08/25 12:28:42;;;;;;;4.82;1.70;;;40.70;53.70;;;;;;5134695;27;20050;-68
2022/08/25 12:31:21;;;;;;;4.55;1.70;;;41.00;51.60;;;;;;5147216;27;20402;-69
2022/08/25 12:34:02;;;;;;;6.53;2.20;;;40.90;51.90;;;;;;5150385;27;20111;-68
2022/08/25 12:36:31;;;;;;;5.25;2.03;;;40.70;53.20;;;;;;5133585;27;20113;-68
2022/08/25 12:39:17;;;;;;;5.10;1.88;;;40.40;53.00;;;;;;5137028;27;20517;-68
2022/08/25 12:41:55;;;;;;;5.75;1.75;;;40.30;52.80;;;;;;5135708;27;20047;-68
2022/08/25 12:44:38;;;;;;;5.68;1.70;;;40.60;53.00;;;;;;5154676;27;20055;-68
2022/08/25 12:47:26;;;;;;;3.38;1.88;;;40.90;52.50;;;;;;5136714;27;20050;-68
2022/08/25 12:49:54;;;;;;;8.00;2.13;;;41.00;52.20;;;;;;5148877;27;20047;-68
2022/08/25 12:52:24;;;;;;;3.72;1.67;;;41.30;52.50;;;;;;5136121;27;20059;-67
2022/08/25 12:54:58;;;;;;;5.15;1.92;;;41.30;52.60;;;;;;5153382;27;20150;-67
2022/08/25 12:57:41;;;;;;;2.70;1.60;;;41.00;52.20;;;;;;5153965;27;20046;-67
2022/08/25 13:00:20;;;;;;;4.55;2.17;;;41.10;52.20;;;;;;5154627;27;20046;-67
2022/08/25 13:03:26;;;;;;;5.82;1.90;;;40.80;52.50;;;;;;5144014;27;20078;-67
2022/08/25 13:06:12;;;;;;;3.28;1.85;;;40.60;52.50;;;;;;5134601;27;20081;-68
2022/08/25 13:09:27;;;;;;;3.60;2.30;;;40.40;52.70;;;;;;5155229;27;20046;-68
2022/08/25 13:12:04;;;;;;;2.70;1.73;;;40.50;52.00;;;;;;5094384;27;20104;-67
2022/08/25 13:14:37;;;;;;;5.50;2.00;;;40.70;52.40;;;;;;5133383;27;20449;-67
2022/08/25 13:17:05;;;;;;;4.18;1.92;;;40.70;52.50;;;;;;5129499;27;20486;-68
2022/08/25 13:19:32;;;;;;;6.85;1.80;;;40.60;52.10;;;;;;5132193;27;20115;-68